createdAt,value
2018-10-09T00:00:38.875Z,0.00
2018-10-09T00:01:38.824Z,0.00
2018-10-09T00:02:38.801Z,0.00
2018-10-09T00:03:38.782Z,0.00
2018-10-09T00:04:38.758Z,0.00
2018-10-09T00:05:38.739Z,0.00
2018-10-09T00:06:38.721Z,0.00
2018-10-09T00:07:38.698Z,0.00
2018-10-09T00:08:38.681Z,0.00
2018-10-09T00:09:38.650Z,0.00
2018-10-09T00:10:38.626Z,0.00
2018-10-09T00:11:38.607Z,0.00
2018-10-09T00:12:38.590Z,0.00
2018-10-09T00:13:38.568Z,0.00
2018-10-09T00:14:38.546Z,0.00
2018-10-09T00:15:38.521Z,0.00
2018-10-09T00:16:38.498Z,0.00
2018-10-09T00:17:38.479Z,0.00
2018-10-09T00:18:38.458Z,0.00
2018-10-09T00:19:38.435Z,0.00
2018-10-09T00:20:38.413Z,0.00
2018-10-09T00:21:38.394Z,0.00
2018-10-09T00:22:38.371Z,0.00
2018-10-09T00:23:38.358Z,0.00
2018-10-09T00:24:38.329Z,0.00
2018-10-09T00:25:38.309Z,0.00
2018-10-09T00:26:38.285Z,0.00
2018-10-09T00:27:38.268Z,0.00
2018-10-09T00:28:38.243Z,0.00
2018-10-09T00:29:38.221Z,0.00
2018-10-09T00:30:38.202Z,0.00
2018-10-09T00:31:38.176Z,0.00
2018-10-09T00:32:38.156Z,0.00
2018-10-09T00:33:38.134Z,0.00
2018-10-09T00:34:38.111Z,0.00
2018-10-09T00:35:38.091Z,0.00
2018-10-09T00:36:38.069Z,0.00
2018-10-09T00:37:38.053Z,0.00
2018-10-09T00:38:38.033Z,0.00
2018-10-09T00:39:38.003Z,0.00
2018-10-09T00:40:37.987Z,0.00
2018-10-09T00:41:37.962Z,0.00
2018-10-09T00:42:37.939Z,0.00
2018-10-09T00:43:37.918Z,0.00
2018-10-09T00:44:37.905Z,0.00
2018-10-09T00:45:37.875Z,0.00
2018-10-09T00:46:37.854Z,0.00
2018-10-09T00:47:37.834Z,0.00
2018-10-09T00:48:37.816Z,0.00
2018-10-09T00:49:37.791Z,0.00
2018-10-09T00:50:37.770Z,0.00
2018-10-09T00:51:37.747Z,0.00
2018-10-09T00:52:37.724Z,0.00
2018-10-09T00:53:37.705Z,0.00
2018-10-09T00:54:37.680Z,0.00
2018-10-09T00:55:37.668Z,0.00
2018-10-09T00:56:37.637Z,0.00
2018-10-09T00:57:37.617Z,0.00
2018-10-09T00:58:37.596Z,0.00
2018-10-09T00:59:37.573Z,0.00
2018-10-09T01:00:37.553Z,0.00
2018-10-09T01:01:37.535Z,0.00
2018-10-09T01:02:37.506Z,0.00
2018-10-09T01:03:37.485Z,0.00
2018-10-09T01:04:37.466Z,0.00
2018-10-09T01:05:37.444Z,0.00
2018-10-09T01:06:37.421Z,0.00
2018-10-09T01:07:37.399Z,0.00
2018-10-09T01:08:37.381Z,0.00
2018-10-09T01:09:37.360Z,0.00
2018-10-09T01:10:37.335Z,0.00
2018-10-09T01:11:37.315Z,0.00
2018-10-09T01:12:37.297Z,0.00
2018-10-09T01:13:37.273Z,0.00
2018-10-09T01:14:37.248Z,0.00
2018-10-09T01:15:37.229Z,0.00
2018-10-09T01:16:37.210Z,0.00
2018-10-09T01:17:37.183Z,0.00
2018-10-09T01:18:37.165Z,0.00
2018-10-09T01:19:37.140Z,0.00
2018-10-09T01:20:37.120Z,0.00
2018-10-09T01:21:37.104Z,0.00
2018-10-09T01:22:37.080Z,0.00
2018-10-09T01:23:37.053Z,0.00
2018-10-09T01:24:37.035Z,0.00
2018-10-09T01:25:37.011Z,0.00
2018-10-09T01:26:36.988Z,0.00
2018-10-09T01:27:36.967Z,0.00
2018-10-09T01:28:36.945Z,0.00
2018-10-09T01:29:36.925Z,0.00
2018-10-09T01:30:36.957Z,0.00
2018-10-09T01:31:36.882Z,0.00
2018-10-09T01:32:36.858Z,0.00
2018-10-09T01:33:36.837Z,0.00
2018-10-09T01:34:36.820Z,0.00
2018-10-09T01:35:36.794Z,0.00
2018-10-09T01:36:36.771Z,0.00
2018-10-09T01:37:36.750Z,0.00
2018-10-09T01:38:36.728Z,0.00
2018-10-09T01:39:36.707Z,0.00
2018-10-09T01:40:36.685Z,0.00
2018-10-09T01:41:36.664Z,0.00
2018-10-09T01:42:36.641Z,0.00
2018-10-09T01:43:36.624Z,0.00
2018-10-09T01:44:36.598Z,0.00
2018-10-09T01:45:36.581Z,0.00
2018-10-09T01:46:36.555Z,0.00
2018-10-09T01:47:36.533Z,0.00
2018-10-09T01:48:36.512Z,0.00
2018-10-09T01:49:36.492Z,0.00
2018-10-09T01:50:36.468Z,0.00
2018-10-09T01:51:36.447Z,0.00
2018-10-09T01:52:36.430Z,0.00
2018-10-09T01:53:36.403Z,0.00
2018-10-09T01:54:36.381Z,0.00
2018-10-09T01:55:36.358Z,0.00
2018-10-09T01:56:36.340Z,0.00
2018-10-09T01:57:36.322Z,0.00
2018-10-09T01:58:36.295Z,0.00
2018-10-09T01:59:36.274Z,0.00
2018-10-09T02:00:36.254Z,0.00
2018-10-09T02:01:36.228Z,0.00
2018-10-09T02:02:36.208Z,0.00
2018-10-09T02:03:36.185Z,0.00
2018-10-09T02:04:36.163Z,0.00
2018-10-09T02:05:36.144Z,0.00
2018-10-09T02:06:36.120Z,0.00
2018-10-09T02:07:36.097Z,0.00
2018-10-09T02:08:36.076Z,0.00
2018-10-09T02:09:36.057Z,0.00
2018-10-09T02:10:36.033Z,0.00
2018-10-09T02:11:36.012Z,0.00
2018-10-09T02:12:35.991Z,0.00
2018-10-09T02:13:35.969Z,0.00
2018-10-09T02:14:35.946Z,0.00
2018-10-09T02:15:35.925Z,0.00
2018-10-09T02:16:35.903Z,0.00
2018-10-09T02:17:35.884Z,0.00
2018-10-09T02:18:35.857Z,0.00
2018-10-09T02:19:35.839Z,0.00
2018-10-09T02:20:35.814Z,0.00
2018-10-09T02:21:35.794Z,0.00
2018-10-09T02:22:35.770Z,0.00
2018-10-09T02:23:35.749Z,0.00
2018-10-09T02:24:35.727Z,0.00
2018-10-09T02:25:35.710Z,0.00
2018-10-09T02:26:35.694Z,0.00
2018-10-09T02:27:35.661Z,0.00
2018-10-09T02:28:35.640Z,0.00
2018-10-09T02:29:35.617Z,0.00
2018-10-09T02:30:35.596Z,0.00
2018-10-09T02:31:35.576Z,0.00
2018-10-09T02:32:35.553Z,0.00
2018-10-09T02:33:35.568Z,0.00
2018-10-09T02:34:35.508Z,0.00
2018-10-09T02:35:35.489Z,0.00
2018-10-09T02:36:35.468Z,0.00
2018-10-09T02:37:35.444Z,0.00
2018-10-09T02:38:35.421Z,0.00
2018-10-09T02:39:35.398Z,0.00
2018-10-09T02:40:35.377Z,0.00
2018-10-09T02:41:35.357Z,0.00
2018-10-09T02:42:35.333Z,0.00
2018-10-09T02:43:35.313Z,0.00
2018-10-09T02:44:35.292Z,0.00
2018-10-09T02:45:35.270Z,0.00
2018-10-09T02:46:35.246Z,0.00
2018-10-09T02:47:35.229Z,0.00
2018-10-09T02:48:35.204Z,0.00
2018-10-09T02:49:35.182Z,0.00
2018-10-09T02:50:35.158Z,0.00
2018-10-09T02:51:35.138Z,0.00
2018-10-09T02:52:35.115Z,0.00
2018-10-09T02:53:35.100Z,0.00
2018-10-09T02:54:35.072Z,0.00
2018-10-09T02:55:35.050Z,0.00
2018-10-09T02:56:35.027Z,0.00
2018-10-09T02:57:35.011Z,0.00
2018-10-09T02:58:34.984Z,0.00
2018-10-09T02:59:34.962Z,0.00
2018-10-09T03:00:34.949Z,0.00
2018-10-09T03:01:34.918Z,0.00
2018-10-09T03:02:34.905Z,0.00
2018-10-09T03:03:34.875Z,0.00
2018-10-09T03:04:34.860Z,0.00
2018-10-09T03:05:34.836Z,0.00
2018-10-09T03:06:34.807Z,0.00
2018-10-09T03:07:34.787Z,0.00
2018-10-09T03:08:34.829Z,0.00
2018-10-09T03:09:34.744Z,0.00
2018-10-09T03:10:34.722Z,0.00
2018-10-09T03:11:34.698Z,0.00
2018-10-09T03:12:34.677Z,0.00
2018-10-09T03:13:34.654Z,0.00
2018-10-09T03:14:34.637Z,0.00
2018-10-09T03:15:34.616Z,0.00
2018-10-09T03:16:34.591Z,0.00
2018-10-09T03:17:34.576Z,0.00
2018-10-09T03:18:34.551Z,0.00
2018-10-09T03:19:34.528Z,0.00
2018-10-09T03:20:34.517Z,0.00
2018-10-09T03:21:34.479Z,0.00
2018-10-09T03:22:34.456Z,0.00
2018-10-09T03:23:34.440Z,0.00
2018-10-09T03:24:34.412Z,0.00
2018-10-09T03:25:34.392Z,0.00
2018-10-09T03:26:34.367Z,0.00
2018-10-09T03:27:34.345Z,0.00
2018-10-09T03:28:34.324Z,0.00
2018-10-09T03:29:34.313Z,0.00
2018-10-09T03:30:34.282Z,0.00
2018-10-09T03:31:34.261Z,0.00
2018-10-09T03:32:34.238Z,0.00
2018-10-09T03:33:34.215Z,0.00
2018-10-09T03:34:34.194Z,0.00
2018-10-09T03:35:34.180Z,0.00
2018-10-09T03:36:34.148Z,0.00
2018-10-09T03:37:34.128Z,0.00
2018-10-09T03:38:34.105Z,0.00
2018-10-09T03:39:34.083Z,0.00
2018-10-09T03:40:34.063Z,0.00
2018-10-09T03:41:34.039Z,0.00
2018-10-09T03:42:34.016Z,0.00
2018-10-09T03:43:33.994Z,0.00
2018-10-09T03:44:33.971Z,0.00
2018-10-09T03:45:33.952Z,0.00
2018-10-09T03:46:33.926Z,0.00
2018-10-09T03:47:33.912Z,0.00
2018-10-09T03:48:33.884Z,0.00
2018-10-09T03:49:33.862Z,0.00
2018-10-09T03:50:33.840Z,0.00
2018-10-09T03:51:33.817Z,0.00
2018-10-09T03:52:33.793Z,0.00
2018-10-09T03:53:33.772Z,0.00
2018-10-09T03:54:33.748Z,0.00
2018-10-09T03:55:33.727Z,0.00
2018-10-09T03:56:33.706Z,0.00
2018-10-09T03:57:33.686Z,0.00
2018-10-09T03:58:33.661Z,0.00
2018-10-09T03:59:33.642Z,0.00
2018-10-09T04:00:33.618Z,0.00
2018-10-09T04:01:33.596Z,0.00
2018-10-09T04:02:33.574Z,0.00
2018-10-09T04:03:33.551Z,0.00
2018-10-09T04:04:33.530Z,0.00
2018-10-09T04:05:33.508Z,0.00
2018-10-09T04:06:33.484Z,0.00
2018-10-09T04:07:33.464Z,0.00
2018-10-09T04:08:33.439Z,0.00
2018-10-09T04:09:33.495Z,0.00
2018-10-09T04:10:33.396Z,0.00
2018-10-09T04:11:33.377Z,0.00
2018-10-09T04:12:33.387Z,0.00
2018-10-09T04:13:33.332Z,0.00
2018-10-09T04:14:33.307Z,0.00
2018-10-09T04:15:33.285Z,0.00
2018-10-09T04:16:33.261Z,0.00
2018-10-09T04:17:33.241Z,0.00
2018-10-09T04:18:33.221Z,0.00
2018-10-09T04:19:33.289Z,0.00
2018-10-09T04:20:33.175Z,0.00
2018-10-09T04:21:33.151Z,0.00
2018-10-09T04:22:33.130Z,0.00
2018-10-09T04:23:33.108Z,0.00
2018-10-09T04:24:33.088Z,0.00
2018-10-09T04:25:33.066Z,0.00
2018-10-09T04:26:33.047Z,0.00
2018-10-09T04:27:33.019Z,0.00
2018-10-09T04:28:32.998Z,0.00
2018-10-09T04:29:33.034Z,0.00
2018-10-09T04:30:32.954Z,0.00
2018-10-09T04:31:32.933Z,0.00
2018-10-09T04:32:32.909Z,0.00
2018-10-09T04:33:32.887Z,0.00
2018-10-09T04:34:32.864Z,0.00
2018-10-09T04:35:32.897Z,0.00
2018-10-09T04:36:32.822Z,0.00
2018-10-09T04:37:32.798Z,0.00
2018-10-09T04:38:32.775Z,0.00
2018-10-09T04:39:32.756Z,0.00
2018-10-09T04:40:32.731Z,0.00
2018-10-09T04:41:32.708Z,0.00
2018-10-09T04:42:32.686Z,0.00
2018-10-09T04:43:32.664Z,0.00
2018-10-09T04:44:32.645Z,0.00
2018-10-09T04:45:32.732Z,0.00
2018-10-09T04:46:32.597Z,0.00
2018-10-09T04:47:32.578Z,0.00
2018-10-09T04:48:32.553Z,0.00
2018-10-09T04:49:32.532Z,0.00
2018-10-09T04:50:32.509Z,0.00
2018-10-09T04:51:32.486Z,0.00
2018-10-09T04:52:32.464Z,0.00
2018-10-09T04:53:32.442Z,0.00
2018-10-09T04:54:32.421Z,0.00
2018-10-09T04:55:32.397Z,0.00
2018-10-09T04:56:32.374Z,0.00
2018-10-09T04:57:32.353Z,0.00
2018-10-09T04:58:32.330Z,0.00
2018-10-09T04:59:32.307Z,0.00
2018-10-09T05:00:32.304Z,0.00
2018-10-09T05:01:32.266Z,0.00
2018-10-09T05:02:32.243Z,0.00
2018-10-09T05:03:32.219Z,0.00
2018-10-09T05:04:32.198Z,0.00
2018-10-09T05:05:32.175Z,0.00
2018-10-09T05:06:32.153Z,0.00
2018-10-09T05:07:32.133Z,0.00
2018-10-09T05:08:32.108Z,0.00
2018-10-09T05:09:32.090Z,0.00
2018-10-09T05:10:32.063Z,0.00
2018-10-09T05:11:32.045Z,0.00
2018-10-09T05:12:32.022Z,0.00
2018-10-09T05:13:32.001Z,0.00
2018-10-09T05:14:31.980Z,0.00
2018-10-09T05:15:31.953Z,0.00
2018-10-09T05:16:31.931Z,0.00
2018-10-09T05:17:31.910Z,0.00
2018-10-09T05:18:31.882Z,0.00
2018-10-09T05:19:31.866Z,0.00
2018-10-09T05:20:31.843Z,0.00
2018-10-09T05:21:31.833Z,0.00
2018-10-09T05:22:31.798Z,0.00
2018-10-09T05:23:31.776Z,4.00
2018-10-09T05:24:31.756Z,0.00
2018-10-09T05:25:31.732Z,4.00
2018-10-09T05:26:31.706Z,0.00
2018-10-09T05:27:31.686Z,0.00
2018-10-09T05:28:31.664Z,0.00
2018-10-09T05:29:31.663Z,4.00
2018-10-09T05:30:31.631Z,0.00
2018-10-09T05:31:31.655Z,0.00
2018-10-09T05:32:31.576Z,0.00
2018-10-09T05:33:31.555Z,4.00
2018-10-09T05:34:31.527Z,4.00
2018-10-09T05:35:31.510Z,4.00
2018-10-09T05:36:31.485Z,4.00
2018-10-09T05:37:31.483Z,4.00
2018-10-09T05:38:31.442Z,4.00
2018-10-09T05:39:31.419Z,8.00
2018-10-09T05:40:31.394Z,4.00
2018-10-09T05:41:31.376Z,8.00
2018-10-09T05:42:31.348Z,8.00
2018-10-09T05:43:32.277Z,8.00
2018-10-09T05:44:31.328Z,8.00
2018-10-09T05:45:31.283Z,12.00
2018-10-09T05:46:31.264Z,12.00
2018-10-09T05:47:31.238Z,12.00
2018-10-09T05:48:31.216Z,12.00
2018-10-09T05:49:31.197Z,16.00
2018-10-09T05:50:31.171Z,16.00
2018-10-09T05:51:31.147Z,16.00
2018-10-09T05:52:31.235Z,16.00
2018-10-09T05:53:31.105Z,20.00
2018-10-09T05:54:31.082Z,24.00
2018-10-09T05:55:31.060Z,24.00
2018-10-09T05:56:31.040Z,28.00
2018-10-09T05:57:31.016Z,28.00
2018-10-09T05:58:30.993Z,32.00
2018-10-09T05:59:30.969Z,36.00
2018-10-09T06:00:30.947Z,40.00
2018-10-09T06:01:30.924Z,40.00
2018-10-09T06:02:30.901Z,44.00
2018-10-09T06:03:30.880Z,48.00
2018-10-09T06:04:30.863Z,48.00
2018-10-09T06:05:30.837Z,52.00
2018-10-09T06:06:30.812Z,56.00
2018-10-09T06:07:30.790Z,60.00
2018-10-09T06:08:30.768Z,64.00
2018-10-09T06:09:30.746Z,64.00
2018-10-09T06:10:30.723Z,72.00
2018-10-09T06:11:30.709Z,76.00
2018-10-09T06:12:30.680Z,76.00
2018-10-09T06:13:30.657Z,80.00
2018-10-09T06:14:30.635Z,80.00
2018-10-09T06:15:30.722Z,88.00
2018-10-09T06:16:30.594Z,88.00
2018-10-09T06:17:30.571Z,92.00
2018-10-09T06:18:30.546Z,96.00
2018-10-09T06:19:30.523Z,96.00
2018-10-09T06:20:30.502Z,100.00
2018-10-09T06:21:30.478Z,100.00
2018-10-09T06:22:30.457Z,104.00
2018-10-09T06:23:30.436Z,108.00
2018-10-09T06:24:30.412Z,108.00
2018-10-09T06:25:30.390Z,108.00
2018-10-09T06:26:30.374Z,112.00
2018-10-09T06:27:30.344Z,116.00
2018-10-09T06:28:30.434Z,116.00
2018-10-09T06:29:30.305Z,116.00
2018-10-09T06:30:30.279Z,120.00
2018-10-09T06:31:30.255Z,124.00
2018-10-09T06:32:30.234Z,128.00
2018-10-09T06:33:30.221Z,140.00
2018-10-09T06:34:30.189Z,140.00
2018-10-09T06:35:30.169Z,148.00
2018-10-09T06:36:30.145Z,148.00
2018-10-09T06:37:30.123Z,152.00
2018-10-09T06:38:30.100Z,152.00
2018-10-09T06:39:30.081Z,148.00
2018-10-09T06:40:30.158Z,152.00
2018-10-09T06:41:30.040Z,156.00
2018-10-09T06:42:30.022Z,152.00
2018-10-09T06:43:29.990Z,152.00
2018-10-09T06:44:29.967Z,156.00
2018-10-09T06:45:29.948Z,156.00
2018-10-09T06:46:29.932Z,160.00
2018-10-09T06:47:29.917Z,164.00
2018-10-09T06:48:29.877Z,168.00
2018-10-09T06:49:29.856Z,176.00
2018-10-09T06:50:29.832Z,184.00
2018-10-09T06:51:29.809Z,192.00
2018-10-09T06:52:29.788Z,196.00
2018-10-09T06:53:29.846Z,204.00
2018-10-09T06:54:29.776Z,208.00
2018-10-09T06:55:29.730Z,208.00
2018-10-09T06:56:29.701Z,208.00
2018-10-09T06:57:29.680Z,204.00
2018-10-09T06:58:29.657Z,208.00
2018-10-09T06:59:29.645Z,204.00
2018-10-09T07:00:29.619Z,200.00
2018-10-09T07:01:29.591Z,188.00
2018-10-09T07:02:29.569Z,188.00
2018-10-09T07:03:29.550Z,192.00
2018-10-09T07:04:29.525Z,192.00
2018-10-09T07:05:29.504Z,196.00
2018-10-09T07:06:29.530Z,200.00
2018-10-09T07:07:29.459Z,208.00
2018-10-09T07:08:29.442Z,212.00
2018-10-09T07:09:29.432Z,220.00
2018-10-09T07:10:29.393Z,232.00
2018-10-09T07:11:29.390Z,252.00
2018-10-09T07:12:29.351Z,272.00
2018-10-09T07:13:29.328Z,300.00
2018-10-09T07:14:29.304Z,344.00
2018-10-09T07:15:29.283Z,372.00
2018-10-09T07:16:29.261Z,404.00
2018-10-09T07:17:29.251Z,432.00
2018-10-09T07:18:29.218Z,444.00
2018-10-09T07:19:29.195Z,440.00
2018-10-09T07:20:29.175Z,396.00
2018-10-09T07:21:29.152Z,384.00
2018-10-09T07:22:29.136Z,380.00
2018-10-09T07:23:29.110Z,364.00
2018-10-09T07:24:29.092Z,440.00
2018-10-09T07:25:29.066Z,472.00
2018-10-09T07:26:29.051Z,476.00
2018-10-09T07:27:29.020Z,436.00
2018-10-09T07:28:29.000Z,560.00
2018-10-09T07:29:28.977Z,580.00
2018-10-09T07:30:28.953Z,600.00
2018-10-09T07:31:28.933Z,640.00
2018-10-09T07:32:28.912Z,604.00
2018-10-09T07:33:28.893Z,540.00
2018-10-09T07:34:28.867Z,468.00
2018-10-09T07:35:28.848Z,476.00
2018-10-09T07:36:28.827Z,548.00
2018-10-09T07:37:28.827Z,620.00
2018-10-09T07:38:28.782Z,600.00
2018-10-09T07:39:28.766Z,688.00
2018-10-09T07:40:28.745Z,704.00
2018-10-09T07:41:28.719Z,724.00
2018-10-09T07:42:28.703Z,696.00
2018-10-09T07:43:28.674Z,692.00
2018-10-09T07:44:28.652Z,680.00
2018-10-09T07:45:28.632Z,644.00
2018-10-09T07:46:28.621Z,648.00
2018-10-09T07:47:28.589Z,636.00
2018-10-09T07:48:28.568Z,604.00
2018-10-09T07:49:28.543Z,520.00
2018-10-09T07:50:28.533Z,500.00
2018-10-09T07:51:28.501Z,500.00
2018-10-09T07:52:28.484Z,496.00
2018-10-09T07:53:28.457Z,508.00
2018-10-09T07:54:28.439Z,508.00
2018-10-09T07:55:28.460Z,500.00
2018-10-09T07:56:28.395Z,560.00
2018-10-09T07:57:28.383Z,600.00
2018-10-09T07:58:28.380Z,616.00
2018-10-09T07:59:28.331Z,660.00
2018-10-09T08:00:28.313Z,672.00
2018-10-09T08:01:28.290Z,672.00
2018-10-09T08:02:28.271Z,656.00
2018-10-09T08:03:28.247Z,624.00
2018-10-09T08:04:28.227Z,568.00
2018-10-09T08:05:28.203Z,496.00
2018-10-09T08:06:28.188Z,484.00
2018-10-09T08:07:28.167Z,472.00
2018-10-09T08:08:28.144Z,488.00
2018-10-09T08:09:28.123Z,520.00
2018-10-09T08:10:28.194Z,544.00
2018-10-09T08:11:28.079Z,572.00
2018-10-09T08:12:28.057Z,596.00
2018-10-09T08:13:28.043Z,636.00
2018-10-09T08:14:28.013Z,668.00
2018-10-09T08:15:27.997Z,672.00
2018-10-09T08:16:28.067Z,660.00
2018-10-09T08:17:27.960Z,660.00
2018-10-09T08:18:27.934Z,648.00
2018-10-09T08:19:27.909Z,628.00
2018-10-09T08:20:27.890Z,608.00
2018-10-09T08:21:27.873Z,612.00
2018-10-09T08:22:27.931Z,632.00
2018-10-09T08:23:27.828Z,600.00
2018-10-09T08:24:27.809Z,676.00
2018-10-09T08:25:27.791Z,664.00
2018-10-09T08:26:27.762Z,676.00
2018-10-09T08:27:27.742Z,708.00
2018-10-09T08:28:27.727Z,792.00
2018-10-09T08:29:27.701Z,812.00
2018-10-09T08:30:27.679Z,752.00
2018-10-09T08:31:27.657Z,716.00
2018-10-09T08:32:27.647Z,708.00
2018-10-09T08:33:27.618Z,704.00
2018-10-09T08:34:27.670Z,692.00
2018-10-09T08:35:27.573Z,696.00
2018-10-09T08:36:27.564Z,712.00
2018-10-09T08:37:27.535Z,572.00
2018-10-09T08:38:27.512Z,536.00
2018-10-09T08:39:27.497Z,520.00
2018-10-09T08:40:27.631Z,492.00
2018-10-09T08:41:27.451Z,448.00
2018-10-09T08:42:27.437Z,424.00
2018-10-09T08:43:27.409Z,416.00
2018-10-09T08:44:27.402Z,412.00
2018-10-09T08:45:27.369Z,408.00
2018-10-09T08:46:27.419Z,396.00
2018-10-09T08:47:27.331Z,388.00
2018-10-09T08:48:27.315Z,372.00
2018-10-09T08:49:27.297Z,360.00
2018-10-09T08:50:27.264Z,356.00
2018-10-09T08:51:27.244Z,336.00
2018-10-09T08:52:27.223Z,324.00
2018-10-09T08:53:27.206Z,316.00
2018-10-09T08:54:27.182Z,312.00
2018-10-09T08:55:27.162Z,300.00
2018-10-09T08:56:27.140Z,304.00
2018-10-09T08:57:27.214Z,300.00
2018-10-09T08:58:27.100Z,292.00
2018-10-09T08:59:27.081Z,300.00
2018-10-09T09:00:27.068Z,296.00
2018-10-09T09:01:27.043Z,284.00
2018-10-09T09:02:27.021Z,280.00
2018-10-09T09:03:27.053Z,276.00
2018-10-09T09:04:26.982Z,272.00
2018-10-09T09:05:26.961Z,264.00
2018-10-09T09:06:26.936Z,268.00
2018-10-09T09:07:26.921Z,260.00
2018-10-09T09:08:26.897Z,244.00
2018-10-09T09:09:26.914Z,240.00
2018-10-09T09:10:26.865Z,240.00
2018-10-09T09:11:26.832Z,244.00
2018-10-09T09:12:26.815Z,252.00
2018-10-09T09:13:26.793Z,272.00
2018-10-09T09:14:26.776Z,292.00
2018-10-09T09:15:26.840Z,352.00
2018-10-09T09:16:26.731Z,536.00
2018-10-09T09:17:26.710Z,736.00
2018-10-09T09:18:26.689Z,856.00
2018-10-09T09:19:26.668Z,912.00
2018-10-09T09:20:26.677Z,928.00
2018-10-09T09:21:26.628Z,912.00
2018-10-09T09:22:26.606Z,952.00
2018-10-09T09:23:26.588Z,972.00
2018-10-09T09:24:26.567Z,944.00
2018-10-09T09:25:26.551Z,988.00
2018-10-09T09:26:26.600Z,1044.00
2018-10-09T09:27:26.636Z,1116.00
2018-10-09T09:28:26.483Z,1112.00
2018-10-09T09:29:26.464Z,1204.00
2018-10-09T09:30:26.446Z,1148.00
2018-10-09T09:31:26.423Z,1104.00
2018-10-09T09:32:26.402Z,1148.00
2018-10-09T09:33:26.382Z,1204.00
2018-10-09T09:34:26.366Z,1268.00
2018-10-09T09:35:26.343Z,1316.00
2018-10-09T09:36:26.323Z,1348.00
2018-10-09T09:37:26.302Z,1364.00
2018-10-09T09:38:26.282Z,1372.00
2018-10-09T09:39:26.261Z,1376.00
2018-10-09T09:40:26.241Z,1380.00
2018-10-09T09:41:26.221Z,1388.00
2018-10-09T09:42:26.201Z,1384.00
2018-10-09T09:43:26.179Z,1384.00
2018-10-09T09:44:26.161Z,1384.00
2018-10-09T09:45:26.140Z,1384.00
2018-10-09T09:46:26.118Z,1388.00
2018-10-09T09:47:26.101Z,1388.00
2018-10-09T09:48:26.077Z,1428.00
2018-10-09T09:49:26.066Z,1420.00
2018-10-09T09:50:26.037Z,1344.00
2018-10-09T09:51:26.018Z,972.00
2018-10-09T09:52:26.002Z,584.00
2018-10-09T09:53:25.978Z,528.00
2018-10-09T09:54:25.958Z,480.00
2018-10-09T09:55:25.947Z,416.00
2018-10-09T09:56:25.925Z,404.00
2018-10-09T09:57:25.907Z,432.00
2018-10-09T09:58:26.040Z,444.00
2018-10-09T09:59:25.931Z,448.00
2018-10-09T10:00:25.841Z,504.00
2018-10-09T10:01:25.824Z,488.00
2018-10-09T10:02:25.808Z,612.00
2018-10-09T10:03:25.781Z,844.00
2018-10-09T10:04:25.768Z,896.00
2018-10-09T10:05:25.746Z,1040.00
2018-10-09T10:06:25.717Z,1168.00
2018-10-09T10:07:25.700Z,920.00
2018-10-09T10:08:25.679Z,824.00
2018-10-09T10:09:25.788Z,952.00
2018-10-09T10:10:25.639Z,1108.00
2018-10-09T10:11:25.621Z,1024.00
2018-10-09T10:12:25.602Z,864.00
2018-10-09T10:13:25.580Z,996.00
2018-10-09T10:14:25.564Z,1032.00
2018-10-09T10:15:25.548Z,744.00
2018-10-09T10:16:25.540Z,588.00
2018-10-09T10:17:25.504Z,628.00
2018-10-09T10:18:25.485Z,1576.00
2018-10-09T10:19:25.462Z,1552.00
2018-10-09T10:20:25.449Z,1548.00
2018-10-09T10:21:25.497Z,1524.00
2018-10-09T10:22:25.404Z,1404.00
2018-10-09T10:23:25.391Z,1316.00
2018-10-09T10:24:25.363Z,1136.00
2018-10-09T10:25:25.348Z,1268.00
2018-10-09T10:26:25.337Z,1440.00
2018-10-09T10:27:25.306Z,1548.00
2018-10-09T10:28:25.312Z,1556.00
2018-10-09T10:29:25.269Z,1584.00
2018-10-09T10:30:25.249Z,1600.00
2018-10-09T10:31:25.233Z,1612.00
2018-10-09T10:32:25.208Z,1620.00
2018-10-09T10:33:25.190Z,1616.00
2018-10-09T10:34:25.173Z,1596.00
2018-10-09T10:35:25.158Z,1564.00
2018-10-09T10:36:25.135Z,1508.00
2018-10-09T10:37:25.114Z,1484.00
2018-10-09T10:38:25.092Z,1512.00
2018-10-09T10:39:25.075Z,1640.00
2018-10-09T10:40:25.055Z,1700.00
2018-10-09T10:41:25.034Z,1720.00
2018-10-09T10:42:25.017Z,1720.00
2018-10-09T10:43:25.005Z,1744.00
2018-10-09T10:44:25.000Z,1788.00
2018-10-09T10:45:24.963Z,1804.00
2018-10-09T10:46:24.939Z,1784.00
2018-10-09T10:47:24.919Z,1788.00
2018-10-09T10:48:24.903Z,1844.00
2018-10-09T10:49:24.941Z,1884.00
2018-10-09T10:50:24.871Z,1912.00
2018-10-09T10:51:24.850Z,1944.00
2018-10-09T10:52:24.824Z,1960.00
2018-10-09T10:53:24.806Z,1964.00
2018-10-09T10:54:24.787Z,1984.00
2018-10-09T10:55:24.770Z,1916.00
2018-10-09T10:56:24.750Z,1972.00
2018-10-09T10:57:24.732Z,1996.00
2018-10-09T10:58:24.715Z,2016.00
2018-10-09T10:59:24.697Z,1960.00
2018-10-09T11:00:24.675Z,1892.00
2018-10-09T11:01:24.769Z,1840.00
2018-10-09T11:02:24.639Z,1704.00
2018-10-09T11:03:24.620Z,1764.00
2018-10-09T11:04:24.607Z,1752.00
2018-10-09T11:05:24.592Z,1672.00
2018-10-09T11:06:24.566Z,1552.00
2018-10-09T11:07:24.544Z,1352.00
2018-10-09T11:08:24.642Z,1440.00
2018-10-09T11:09:24.512Z,1356.00
2018-10-09T11:10:24.492Z,1160.00
2018-10-09T11:11:24.481Z,928.00
2018-10-09T11:12:24.453Z,996.00
2018-10-09T11:13:24.434Z,932.00
2018-10-09T11:14:24.430Z,1000.00
2018-10-09T11:15:24.396Z,1008.00
2018-10-09T11:16:24.388Z,872.00
2018-10-09T11:17:24.361Z,908.00
2018-10-09T11:18:24.343Z,852.00
2018-10-09T11:19:24.326Z,752.00
2018-10-09T11:20:24.304Z,756.00
2018-10-09T11:21:24.434Z,812.00
2018-10-09T11:22:24.264Z,820.00
2018-10-09T11:23:24.252Z,852.00
2018-10-09T11:24:24.228Z,852.00
2018-10-09T11:25:24.209Z,848.00
2018-10-09T11:26:24.190Z,888.00
2018-10-09T11:27:24.178Z,1024.00
2018-10-09T11:28:24.154Z,1168.00
2018-10-09T11:29:24.134Z,1244.00
2018-10-09T11:30:24.116Z,1296.00
2018-10-09T11:31:24.097Z,1332.00
2018-10-09T11:32:24.114Z,1396.00
2018-10-09T11:33:24.064Z,1480.00
2018-10-09T11:34:24.055Z,1556.00
2018-10-09T11:35:24.033Z,1564.00
2018-10-09T11:36:24.009Z,1412.00
2018-10-09T11:37:23.989Z,1292.00
2018-10-09T11:38:23.968Z,1324.00
2018-10-09T11:39:23.949Z,1400.00
2018-10-09T11:40:23.933Z,1452.00
2018-10-09T11:41:23.916Z,1380.00
2018-10-09T11:42:23.893Z,1432.00
2018-10-09T11:43:23.876Z,1432.00
2018-10-09T11:44:23.857Z,1376.00
2018-10-09T11:45:23.838Z,1360.00
2018-10-09T11:46:23.818Z,1360.00
2018-10-09T11:47:23.801Z,1540.00
2018-10-09T11:48:23.790Z,1720.00
2018-10-09T11:49:23.768Z,1812.00
2018-10-09T11:50:23.745Z,1772.00
2018-10-09T11:51:23.726Z,1812.00
2018-10-09T11:52:23.709Z,1724.00
2018-10-09T11:53:23.691Z,1632.00
2018-10-09T11:54:23.671Z,1456.00
2018-10-09T11:55:23.653Z,1428.00
2018-10-09T11:56:23.636Z,1480.00
2018-10-09T11:57:23.623Z,1544.00
2018-10-09T11:58:23.606Z,1488.00
2018-10-09T11:59:23.580Z,1472.00
2018-10-09T12:00:23.565Z,1444.00
2018-10-09T12:01:23.545Z,1536.00
2018-10-09T12:02:23.527Z,1652.00
2018-10-09T12:03:23.517Z,1724.00
2018-10-09T12:04:23.497Z,1544.00
2018-10-09T12:05:23.482Z,1540.00
2018-10-09T12:06:23.452Z,1736.00
2018-10-09T12:07:23.436Z,1660.00
2018-10-09T12:08:23.416Z,1444.00
2018-10-09T12:09:23.399Z,1392.00
2018-10-09T12:10:23.379Z,1232.00
2018-10-09T12:11:23.365Z,1240.00
2018-10-09T12:12:23.353Z,1264.00
2018-10-09T12:13:23.334Z,1248.00
2018-10-09T12:14:23.307Z,1124.00
2018-10-09T12:15:23.294Z,916.00
2018-10-09T12:16:23.311Z,868.00
2018-10-09T12:17:23.255Z,1024.00
2018-10-09T12:18:23.264Z,1136.00
2018-10-09T12:19:23.217Z,1108.00
2018-10-09T12:20:23.204Z,1092.00
2018-10-09T12:21:23.215Z,1064.00
2018-10-09T12:22:23.162Z,1112.00
2018-10-09T12:23:23.149Z,988.00
2018-10-09T12:24:23.128Z,872.00
2018-10-09T12:25:23.108Z,968.00
2018-10-09T12:26:23.090Z,964.00
2018-10-09T12:27:23.071Z,928.00
2018-10-09T12:28:23.057Z,868.00
2018-10-09T12:29:23.039Z,880.00
2018-10-09T12:30:23.021Z,944.00
2018-10-09T12:31:23.000Z,968.00
2018-10-09T12:32:22.982Z,980.00
2018-10-09T12:33:22.964Z,944.00
2018-10-09T12:34:22.948Z,896.00
2018-10-09T12:35:22.926Z,896.00
2018-10-09T12:36:22.912Z,952.00
2018-10-09T12:37:22.889Z,832.00
2018-10-09T12:38:22.895Z,860.00
2018-10-09T12:39:22.861Z,908.00
2018-10-09T12:40:22.840Z,908.00
2018-10-09T12:41:22.839Z,972.00
2018-10-09T12:42:22.801Z,1084.00
2018-10-09T12:43:22.793Z,1080.00
2018-10-09T12:44:22.871Z,1084.00
2018-10-09T12:45:22.751Z,1036.00
2018-10-09T12:46:22.728Z,1076.00